Terminal Aerodrome Forecast
Issued by NWS

Home | Current Version | Previous Version | Text Only | Print | Product List | Glossary On
Versions: 1 2 3 4 5 6 7 8 9 10 11 12 13 14 15
000
FTUS45 KRIW 232320
TAFCOD
TAF
KCOD 232320Z 2400/2424 24011G18KT P6SM VCSH SCT060 BKN150
     FM240300 VRB07KT P6SM VCSH SCT070 BKN120
     FM240900 23011KT P6SM BKN120
     FM241700 27011G17KT P6SM SCT050 BKN070
     FM241900 15011KT P6SM VCSH SCT060 BKN080
     FM242200 36011G28KT 6SM -SHRA SCT040 OVC050
      AMD LTD TO CLD VIS AND WIND=

USA.gov is the U.S. government's official web portal to all federal, state and local government web resources and services.